Terminal Aerodrome Forecast
Issued by NWS Spokane, WA

Home | Current Version | Previous Version | Text Only | Print | Product List | Glossary On
Versions: 1 2 3 4 5 6 7 8 9 10 11 12 13 14 15 16 17
000
FTUS46 KOTX 232336
TAFLWS
TAF
KLWS 232336Z 2400/2424 20005KT P6SM VCSH OVC050
     FM240100 16007KT 5SM -SN BKN030 OVC050
     FM240400 19005KT P6SM VCSH SCT030 OVC050
     FM241500 16010G15KT 2SM -SN OVC018
     FM241800 28010G15KT 4SM -SN OVC015=

USA.gov is the U.S. government's official web portal to all federal, state and local government web resources and services.